Strona główna
METAR-TAF:

METAR-TAF

Lotnisko :

Wattisham, Anglia

Szerokość geograficzna: 52-07N, Długość geograficzna: 000-58E, wysokość: 87 m

Aktualna obserwacja pogody

Raport powstał 41 minut temu, godzina 23:50 UTC
Wiatr 6 kt od południowy wschód
Temperatura 7°C
Wilgotność 81%
Ciśnienie 1020 hPa
Widzialność 10 km lub więcej

METAR: EGUW 042350Z AUTO 13006KT 9999 NCD 07/04 Q1020

czas: 01:31 (00:31 UTC)


TAF: brakujący

Obserwacja i prognoza pogody dla ponad 4000 lotnisk (raport METAR i TAF).

Dostępne stacje oznaczono żółtymi i czerwonymi punktami na mapie.

Najedź kursorem aby zobaczyć nazwę stacji.

Kliknij aby zobaczyć obserwacje i prognozy pogody.

Aby zmienić mapę: kliknij na zielony przycisk z czarnym krzyżykiem, aby powiększyć; na zielony przycisk z myślnikiem, aby pomniejszyć; na zielone strzałki, aby przejść do map sąsiednich.


METAR-TAF: